createdAt,value
2022-08-22T00:02:34.400Z,3.78
2022-08-22T00:02:44.408Z,4.18
2022-08-22T00:02:47.158Z,4.28
2022-08-22T00:03:12.642Z,2.90
2022-08-22T00:05:23.574Z,3.53
2022-08-22T00:08:01.776Z,4.57
2022-08-22T00:10:43.153Z,4.97
2022-08-22T00:13:22.975Z,3.80
2022-08-22T00:16:23.399Z,5.00
2022-08-22T00:18:57.884Z,3.60
2022-08-22T00:21:46.997Z,3.80
2022-08-22T00:24:29.318Z,3.85
2022-08-22T00:27:09.623Z,3.70
2022-08-22T00:29:47.200Z,4.18
2022-08-22T00:32:35.273Z,3.67
2022-08-22T00:35:17.473Z,4.30
2022-08-22T00:38:07.177Z,4.97
2022-08-22T00:41:16.520Z,4.40
2022-08-22T00:44:01.755Z,4.30
2022-08-22T00:46:46.270Z,5.18
2022-08-22T00:49:32.537Z,4.05
2022-08-22T00:55:19.287Z,3.85
2022-08-22T00:58:16.077Z,4.82
2022-08-22T01:00:47.372Z,4.72
2022-08-22T01:03:44.152Z,5.03
2022-08-22T01:06:42.579Z,4.72
2022-08-22T01:09:46.909Z,3.45
2022-08-22T01:12:45.333Z,4.35
2022-08-22T01:15:19.445Z,4.15
2022-08-22T01:17:52.156Z,4.97
2022-08-22T01:20:47.557Z,4.28
2022-08-22T01:23:50.626Z,4.65
2022-08-22T01:26:40.586Z,3.70
2022-08-22T01:29:33.231Z,4.72
2022-08-22T01:32:41.829Z,5.05
2022-08-22T01:35:19.233Z,3.90
2022-08-22T01:38:21.581Z,4.00
2022-08-22T01:41:07.035Z,5.10
2022-08-22T01:43:59.833Z,3.55
2022-08-22T01:46:37.560Z,3.35
2022-08-22T01:49:21.080Z,3.55
2022-08-22T01:52:07.780Z,3.92
2022-08-22T01:54:47.934Z,4.05
2022-08-22T01:57:15.799Z,4.05
2022-08-22T01:59:46.091Z,4.57
2022-08-22T02:02:37.179Z,4.28
2022-08-22T02:05:18.306Z,3.90
2022-08-22T02:07:52.910Z,4.25
2022-08-22T02:10:43.008Z,4.15
2022-08-22T02:13:12.843Z,3.72
2022-08-22T02:15:39.627Z,4.18
2022-08-22T02:18:06.077Z,4.65
2022-08-22T02:20:47.724Z,3.90
2022-08-22T02:23:43.362Z,4.15
2022-08-22T02:26:17.702Z,4.20
2022-08-22T02:28:57.391Z,4.97
2022-08-22T02:31:41.139Z,3.97
2022-08-22T02:34:26.435Z,5.13
2022-08-22T02:37:06.813Z,3.65
2022-08-22T02:39:44.201Z,4.72
2022-08-22T02:42:48.678Z,3.85
2022-08-22T02:45:30.238Z,4.03
2022-08-22T02:48:19.332Z,3.85
2022-08-22T02:50:56.873Z,4.28
2022-08-22T02:53:33.408Z,3.95
2022-08-22T02:56:13.013Z,4.07
2022-08-22T02:58:48.128Z,3.92
2022-08-22T03:01:15.050Z,4.07
2022-08-22T03:03:45.973Z,4.30
2022-08-22T03:06:33.860Z,4.60
2022-08-22T03:09:18.675Z,4.55
2022-08-22T03:12:21.492Z,4.65
2022-08-22T03:15:00.419Z,4.00
2022-08-22T03:17:33.252Z,4.38
2022-08-22T03:20:11.557Z,4.20
2022-08-22T03:23:00.470Z,4.13
2022-08-22T03:25:37.289Z,4.13
2022-08-22T03:28:27.013Z,4.55
2022-08-22T03:31:00.130Z,4.22
2022-08-22T03:33:30.194Z,4.50
2022-08-22T03:36:06.478Z,5.88
2022-08-22T03:38:32.817Z,4.75
2022-08-22T03:41:21.047Z,4.82
2022-08-22T03:44:21.508Z,4.88
2022-08-22T03:47:00.287Z,4.95
2022-08-22T03:49:47.171Z,4.20
2022-08-22T03:52:22.832Z,4.85
2022-08-22T03:55:14.774Z,4.50
2022-08-22T03:58:19.148Z,4.90
2022-08-22T04:01:03.334Z,4.95
2022-08-22T04:06:49.205Z,5.00
2022-08-22T04:09:24.713Z,5.05
2022-08-22T04:12:15.376Z,6.07
2022-08-22T04:15:17.536Z,5.95
2022-08-22T04:18:05.225Z,4.82
2022-08-22T04:20:44.823Z,4.43
2022-08-22T04:23:49.891Z,5.25
2022-08-22T04:26:25.939Z,4.75
2022-08-22T04:29:00.446Z,5.10
2022-08-22T04:31:32.398Z,5.65
2022-08-22T04:34:15.218Z,4.60
2022-08-22T04:36:52.216Z,4.85
2022-08-22T04:39:44.075Z,4.95
2022-08-22T04:42:33.686Z,4.03
2022-08-22T04:45:21.136Z,4.22
2022-08-22T04:48:04.372Z,5.10
2022-08-22T04:50:43.280Z,4.82
2022-08-22T04:53:25.077Z,4.55
2022-08-22T04:56:11.343Z,6.07
2022-08-22T04:58:56.677Z,4.30
2022-08-22T05:01:26.459Z,5.15
2022-08-22T05:04:06.019Z,5.13
2022-08-22T05:06:38.081Z,5.40
2022-08-22T05:09:11.882Z,5.20
2022-08-22T05:11:42.909Z,5.32
2022-08-22T05:14:18.389Z,4.80
2022-08-22T05:16:49.976Z,5.15
2022-08-22T05:19:32.093Z,5.45
2022-08-22T05:21:59.334Z,5.38
2022-08-22T05:24:37.395Z,5.20
2022-08-22T05:27:12.277Z,4.97
2022-08-22T05:29:41.899Z,4.68
2022-08-22T05:32:19.372Z,5.20
2022-08-22T05:34:48.173Z,6.82
2022-08-22T05:37:22.884Z,4.68
2022-08-22T05:39:56.488Z,4.20
2022-08-22T05:42:33.591Z,6.43
2022-08-22T05:45:11.619Z,6.65
2022-08-22T05:47:44.707Z,6.40
2022-08-22T05:50:11.894Z,6.03
2022-08-22T05:52:50.275Z,4.78
2022-08-22T05:55:27.990Z,5.68
2022-08-22T05:58:13.052Z,4.75
2022-08-22T06:00:43.897Z,5.68
2022-08-22T06:03:38.842Z,5.10
2022-08-22T06:06:13.277Z,5.47
2022-08-22T06:08:44.164Z,4.70
2022-08-22T06:11:33.970Z,5.07
2022-08-22T06:14:28.857Z,4.80
2022-08-22T06:17:10.618Z,5.10
2022-08-22T06:19:41.815Z,5.85
2022-08-22T06:22:09.649Z,5.50
2022-08-22T06:24:40.896Z,5.47
2022-08-22T06:27:14.393Z,5.32
2022-08-22T06:29:47.047Z,6.30
2022-08-22T06:32:31.546Z,6.15
2022-08-22T06:35:15.342Z,6.80
2022-08-22T06:37:45.868Z,4.50
2022-08-22T06:40:16.418Z,5.00
2022-08-22T06:42:48.437Z,4.95
2022-08-22T06:45:30.554Z,5.35
2022-08-22T06:48:06.571Z,8.93
2022-08-22T06:50:37.037Z,6.43
2022-08-22T06:53:15.280Z,5.57
2022-08-22T06:55:58.543Z,5.60
2022-08-22T06:58:39.013Z,5.57
2022-08-22T07:01:14.070Z,6.47
2022-08-22T07:03:44.886Z,5.10
2022-08-22T07:06:17.240Z,4.95
2022-08-22T07:08:44.290Z,6.28
2022-08-22T07:11:28.042Z,4.80
2022-08-22T07:14:04.281Z,5.10
2022-08-22T07:16:43.350Z,5.43
2022-08-22T07:19:30.949Z,5.43
2022-08-22T07:22:03.164Z,5.63
2022-08-22T07:24:34.689Z,5.82
2022-08-22T07:27:41.119Z,5.78
2022-08-22T07:30:12.901Z,5.82
2022-08-22T07:33:26.326Z,6.47
2022-08-22T07:36:06.919Z,6.28
2022-08-22T07:38:46.855Z,5.40
2022-08-22T07:41:24.717Z,5.80
2022-08-22T07:44:10.765Z,8.32
2022-08-22T07:46:47.417Z,5.35
2022-08-22T07:49:21.762Z,4.68
2022-08-22T07:51:55.952Z,5.30
2022-08-22T07:54:47.057Z,5.57
2022-08-22T07:57:28.118Z,5.45
2022-08-22T08:00:02.095Z,5.28
2022-08-22T08:02:29.149Z,5.70
2022-08-22T08:05:00.170Z,5.25
2022-08-22T08:07:29.078Z,20.77
2022-08-22T08:10:03.163Z,5.35
2022-08-22T08:12:35.668Z,5.47
2022-08-22T08:15:06.371Z,5.93
2022-08-22T08:17:35.301Z,5.53
2022-08-22T08:20:23.409Z,4.75
2022-08-22T08:22:50.792Z,5.03
2022-08-22T08:25:25.819Z,4.32
2022-08-22T08:28:32.068Z,4.15
2022-08-22T08:31:07.611Z,4.95
2022-08-22T08:33:37.557Z,5.40
2022-08-22T08:36:31.838Z,4.18
2022-08-22T08:39:14.193Z,4.47
2022-08-22T08:41:43.520Z,4.97
2022-08-22T08:44:49.359Z,4.60
2022-08-22T08:50:44.657Z,4.82
2022-08-22T08:53:18.982Z,4.15
2022-08-22T08:56:28.370Z,4.20
2022-08-22T08:59:13.525Z,4.30
2022-08-22T09:02:04.085Z,3.30
2022-08-22T09:04:52.824Z,4.60
2022-08-22T09:07:38.816Z,4.40
2022-08-22T09:10:43.670Z,3.78
2022-08-22T09:13:34.427Z,4.15
2022-08-22T09:16:45.077Z,4.38
2022-08-22T09:19:36.103Z,4.05
2022-08-22T09:22:14.368Z,4.97
2022-08-22T09:24:48.767Z,3.60
2022-08-22T09:27:21.673Z,3.95
2022-08-22T09:30:01.996Z,4.30
2022-08-22T09:32:35.084Z,3.70
2022-08-22T09:35:15.862Z,3.70
2022-08-22T09:40:28.736Z,4.40
2022-08-22T09:43:21.594Z,3.90
2022-08-22T09:46:15.387Z,3.90
2022-08-22T09:48:54.152Z,3.28
2022-08-22T09:51:52.750Z,3.72
2022-08-22T09:54:44.821Z,3.60
2022-08-22T09:57:33.627Z,3.42
2022-08-22T10:00:09.064Z,3.42
2022-08-22T10:02:45.805Z,3.67
2022-08-22T10:05:40.572Z,3.00
2022-08-22T10:08:36.032Z,3.42
2022-08-22T10:11:22.809Z,3.20
2022-08-22T10:14:01.215Z,2.97
2022-08-22T10:16:59.293Z,3.40
2022-08-22T10:19:28.792Z,3.75
2022-08-22T10:22:17.167Z,3.47
2022-08-22T10:24:47.937Z,3.22
2022-08-22T10:27:28.872Z,3.25
2022-08-22T10:32:41.329Z,3.92
2022-08-22T10:35:26.557Z,2.85
2022-08-22T10:38:00.914Z,3.20
2022-08-22T10:41:01.948Z,3.47
2022-08-22T10:44:01.259Z,3.95
2022-08-22T10:46:53.319Z,3.45
2022-08-22T10:49:28.749Z,4.18
2022-08-22T10:52:27.185Z,3.40
2022-08-22T10:55:09.602Z,3.60
2022-08-22T10:57:58.216Z,3.78
2022-08-22T11:00:31.119Z,3.53
2022-08-22T11:03:26.679Z,3.28
2022-08-22T11:05:58.187Z,3.00
2022-08-22T11:08:37.914Z,3.17
2022-08-22T11:11:11.357Z,2.88
2022-08-22T11:13:58.475Z,2.60
2022-08-22T11:16:57.636Z,2.53
2022-08-22T11:19:31.811Z,2.83
2022-08-22T11:22:12.818Z,3.72
2022-08-22T11:25:11.505Z,2.67
2022-08-22T11:28:15.564Z,2.63
2022-08-22T11:30:59.100Z,2.85
2022-08-22T11:33:35.934Z,3.15
2022-08-22T11:36:27.874Z,2.28
2022-08-22T11:39:21.689Z,3.22
2022-08-22T11:42:00.530Z,2.65
2022-08-22T11:44:32.072Z,3.22
2022-08-22T11:47:10.887Z,2.95
2022-08-22T11:50:24.756Z,2.85
2022-08-22T11:53:23.756Z,2.90
2022-08-22T11:56:14.665Z,2.55
2022-08-22T11:59:01.309Z,3.25
2022-08-22T12:01:52.688Z,2.53
2022-08-22T12:04:46.021Z,2.50
2022-08-22T12:07:28.136Z,2.80
2022-08-22T12:10:16.451Z,2.83
2022-08-22T12:13:07.147Z,2.45
2022-08-22T12:15:49.006Z,2.30
2022-08-22T12:18:28.564Z,3.38
2022-08-22T12:21:01.029Z,2.53
2022-08-22T12:23:48.780Z,2.58
2022-08-22T12:26:40.630Z,3.10
2022-08-22T12:29:44.574Z,2.20
2022-08-22T12:32:39.313Z,2.70
2022-08-22T12:35:16.574Z,2.85
2022-08-22T12:38:28.777Z,2.20
2022-08-22T12:41:28.250Z,2.50
2022-08-22T12:44:19.486Z,2.92
2022-08-22T12:46:49.100Z,2.88
2022-08-22T12:49:44.938Z,2.85
2022-08-22T12:52:40.905Z,2.65
2022-08-22T12:55:43.100Z,2.50
2022-08-22T12:58:22.731Z,3.00
2022-08-22T13:00:51.652Z,3.25
2022-08-22T13:03:25.381Z,3.00
2022-08-22T13:05:57.057Z,3.40
2022-08-22T13:08:42.137Z,2.72
2022-08-22T13:11:22.335Z,2.63
2022-08-22T13:13:56.949Z,2.88
2022-08-22T13:16:25.701Z,3.03
2022-08-22T13:18:54.056Z,3.03
2022-08-22T13:21:31.386Z,3.05
2022-08-22T13:24:04.599Z,2.80
2022-08-22T13:26:37.572Z,2.53
2022-08-22T13:29:26.871Z,4.32
2022-08-22T13:32:01.933Z,3.20
2022-08-22T13:34:45.764Z,2.63
2022-08-22T13:37:17.961Z,3.45
2022-08-22T13:39:58.590Z,2.83
2022-08-22T13:42:29.862Z,2.83
2022-08-22T13:45:07.562Z,3.45
2022-08-22T13:47:39.585Z,3.05
2022-08-22T13:50:14.655Z,3.25
2022-08-22T13:53:00.878Z,3.13
2022-08-22T13:55:33.997Z,3.50
2022-08-22T13:58:06.976Z,3.72
2022-08-22T14:01:09.281Z,2.80
2022-08-22T14:03:49.184Z,3.13
2022-08-22T14:06:41.419Z,3.38
2022-08-22T14:09:45.795Z,2.60
2022-08-22T14:12:25.063Z,2.95
2022-08-22T14:14:59.443Z,3.28
2022-08-22T14:17:43.167Z,3.28
2022-08-22T14:20:32.104Z,2.50
2022-08-22T14:23:08.762Z,2.88
2022-08-22T14:25:38.946Z,3.10
2022-08-22T14:28:27.577Z,2.58
2022-08-22T14:31:02.679Z,3.10
2022-08-22T14:36:27.282Z,3.33
2022-08-22T14:39:16.435Z,3.10
2022-08-22T14:41:52.509Z,3.10
2022-08-22T14:44:30.102Z,2.60
2022-08-22T14:47:01.841Z,3.28
2022-08-22T14:49:55.919Z,2.25
2022-08-22T14:52:40.670Z,2.40
2022-08-22T14:55:24.383Z,2.92
2022-08-22T14:58:00.437Z,3.15
2022-08-22T15:00:32.915Z,3.08
2022-08-22T15:03:24.704Z,2.90
2022-08-22T15:06:01.982Z,3.30
2022-08-22T15:08:36.506Z,3.13
2022-08-22T15:11:22.654Z,3.25
2022-08-22T15:14:02.308Z,3.35
2022-08-22T15:16:42.790Z,3.13
2022-08-22T15:19:41.407Z,3.17
2022-08-22T15:22:16.637Z,2.78
2022-08-22T15:24:49.546Z,3.03
2022-08-22T15:27:20.347Z,3.05
2022-08-22T15:29:56.646Z,2.20
2022-08-22T15:32:28.807Z,2.70
2022-08-22T15:35:06.351Z,2.47
2022-08-22T15:37:51.905Z,2.53
2022-08-22T15:40:40.576Z,2.30
2022-08-22T15:43:15.258Z,2.40
2022-08-22T15:45:43.969Z,2.33
2022-08-22T15:48:36.132Z,3.03
2022-08-22T15:51:10.396Z,2.40
2022-08-22T15:53:43.109Z,2.63
2022-08-22T15:56:15.436Z,2.47
2022-08-22T15:58:49.545Z,3.22
2022-08-22T16:01:19.827Z,2.47
2022-08-22T16:03:58.061Z,2.17
2022-08-22T16:06:43.316Z,3.50
2022-08-22T16:09:29.590Z,2.97
2022-08-22T16:11:57.585Z,2.35
2022-08-22T16:14:46.296Z,2.58
2022-08-22T16:17:24.925Z,2.47
2022-08-22T16:20:19.815Z,3.10
2022-08-22T16:22:55.909Z,2.63
2022-08-22T16:25:49.906Z,2.65
2022-08-22T16:28:41.374Z,2.20
2022-08-22T16:31:23.598Z,2.58
2022-08-22T16:33:50.468Z,2.65
2022-08-22T16:36:37.380Z,2.97
2022-08-22T16:39:11.543Z,2.90
2022-08-22T16:41:41.823Z,2.92
2022-08-22T16:44:38.682Z,2.50
2022-08-22T16:47:13.794Z,2.95
2022-08-22T16:49:49.244Z,2.60
2022-08-22T16:52:21.525Z,2.50
2022-08-22T16:54:51.021Z,2.70
2022-08-22T16:58:06.082Z,3.00
2022-08-22T17:00:36.168Z,3.10
2022-08-22T17:03:26.394Z,2.92
2022-08-22T17:06:11.439Z,2.58
2022-08-22T17:08:55.373Z,3.28
2022-08-22T17:11:39.012Z,3.03
2022-08-22T17:14:21.544Z,2.40
2022-08-22T17:16:55.082Z,3.13
2022-08-22T17:19:30.887Z,3.03
2022-08-22T17:22:04.543Z,2.85
2022-08-22T17:24:45.782Z,2.88
2022-08-22T17:30:04.861Z,2.88
2022-08-22T17:32:58.964Z,2.90
2022-08-22T17:36:27.204Z,2.53
2022-08-22T17:39:02.657Z,2.80
2022-08-22T17:41:54.300Z,3.35
2022-08-22T17:44:37.878Z,2.45
2022-08-22T17:47:19.459Z,3.03
2022-08-22T17:49:54.036Z,2.97
2022-08-22T17:52:29.400Z,3.50
2022-08-22T17:55:05.335Z,2.85
2022-08-22T17:57:34.356Z,3.30
2022-08-22T18:00:17.173Z,2.90
2022-08-22T18:02:50.942Z,3.25
2022-08-22T18:05:22.474Z,3.25
2022-08-22T18:08:37.536Z,3.10
2022-08-22T18:11:19.079Z,2.60
2022-08-22T18:14:21.126Z,2.78
2022-08-22T18:16:52.513Z,3.10
2022-08-22T18:19:18.855Z,3.20
2022-08-22T18:21:57.192Z,3.17
2022-08-22T18:24:39.634Z,3.35
2022-08-22T18:27:34.198Z,2.95
2022-08-22T18:30:16.057Z,3.25
2022-08-22T18:32:59.708Z,3.00
2022-08-22T18:35:53.668Z,3.22
2022-08-22T18:38:54.370Z,2.88
2022-08-22T18:41:45.295Z,3.40
2022-08-22T18:44:19.613Z,3.08
2022-08-22T18:46:51.684Z,2.78
2022-08-22T18:49:19.399Z,2.97
2022-08-22T18:52:07.066Z,3.15
2022-08-22T18:55:08.167Z,3.22
2022-08-22T18:57:43.130Z,3.00
2022-08-22T19:00:23.340Z,2.53
2022-08-22T19:03:12.626Z,3.20
2022-08-22T19:06:09.197Z,3.00
2022-08-22T19:09:17.558Z,3.38
2022-08-22T19:11:47.065Z,3.22
2022-08-22T19:14:42.037Z,3.50
2022-08-22T19:17:19.067Z,3.05
2022-08-22T19:20:28.071Z,3.25
2022-08-22T19:24:09.326Z,2.90
2022-08-22T19:30:45.094Z,3.03
2022-08-22T19:33:39.317Z,2.47
2022-08-22T19:36:12.778Z,2.65
2022-08-22T19:38:52.568Z,3.05
2022-08-22T19:41:39.354Z,3.30
2022-08-22T19:44:12.267Z,3.75
2022-08-22T19:46:41.494Z,3.30
2022-08-22T19:49:27.600Z,3.60
2022-08-22T19:52:23.810Z,3.45
2022-08-22T19:55:19.641Z,3.50
2022-08-22T19:58:31.748Z,2.95
2022-08-22T20:01:09.183Z,3.33
2022-08-22T20:03:53.132Z,3.42
2022-08-22T20:06:52.437Z,3.47
2022-08-22T20:09:25.252Z,3.10
2022-08-22T20:12:22.310Z,3.58
2022-08-22T20:14:49.356Z,3.90
2022-08-22T20:17:24.957Z,4.22
2022-08-22T20:22:48.137Z,3.58
2022-08-22T20:25:41.591Z,3.80
2022-08-22T20:28:37.281Z,3.58
2022-08-22T20:31:12.208Z,2.83
2022-08-22T20:33:42.614Z,2.60
2022-08-22T20:36:27.680Z,3.85
2022-08-22T20:39:00.072Z,2.90
2022-08-22T20:41:36.593Z,2.47
2022-08-22T20:44:28.645Z,2.58
2022-08-22T20:47:00.223Z,2.35
2022-08-22T20:49:31.447Z,3.03
2022-08-22T20:52:02.869Z,3.05
2022-08-22T20:54:32.753Z,2.95
2022-08-22T20:57:02.492Z,2.22
2022-08-22T20:59:35.703Z,2.38
2022-08-22T21:02:04.782Z,2.85
2022-08-22T21:04:43.028Z,2.05
2022-08-22T21:07:09.801Z,2.60
2022-08-22T21:09:54.775Z,2.75
2022-08-22T21:12:22.172Z,2.67
2022-08-22T21:14:48.891Z,2.83
2022-08-22T21:17:19.823Z,2.42
2022-08-22T21:19:46.324Z,2.03
2022-08-22T21:22:37.790Z,2.80
2022-08-22T21:25:04.986Z,2.78
2022-08-22T21:27:33.670Z,2.50
2022-08-22T21:30:02.615Z,2.15
2022-08-22T21:32:36.452Z,2.55
2022-08-22T21:35:04.914Z,2.85
2022-08-22T21:37:43.084Z,3.00
2022-08-22T21:40:39.659Z,2.92
2022-08-22T21:43:12.887Z,2.42
2022-08-22T21:45:39.222Z,2.83
2022-08-22T21:48:36.936Z,2.28
2022-08-22T21:51:44.008Z,2.70
2022-08-22T21:54:25.294Z,3.10
2022-08-22T21:56:53.821Z,2.72
2022-08-22T21:59:52.098Z,2.53
2022-08-22T22:02:39.921Z,2.78
2022-08-22T22:07:40.744Z,2.83
2022-08-22T22:10:10.491Z,3.28
2022-08-22T22:12:43.027Z,2.30
2022-08-22T22:15:14.679Z,2.88
2022-08-22T22:17:41.127Z,3.03
2022-08-22T22:20:08.316Z,2.40
2022-08-22T22:22:37.092Z,2.72
2022-08-22T22:25:40.786Z,2.58
2022-08-22T22:28:13.048Z,2.58
2022-08-22T22:30:40.261Z,2.17
2022-08-22T22:33:07.063Z,1.92
2022-08-22T22:35:34.075Z,1.95
2022-08-22T22:38:00.904Z,2.05
2022-08-22T22:40:27.530Z,2.53
2022-08-22T22:42:53.968Z,1.88
2022-08-22T22:45:20.456Z,1.98
2022-08-22T22:47:46.922Z,1.95
2022-08-22T22:50:13.337Z,3.00
2022-08-22T22:52:40.893Z,1.80
2022-08-22T22:55:08.871Z,2.63
2022-08-22T22:57:42.377Z,2.67
2022-08-22T23:00:12.679Z,2.70
2022-08-22T23:02:39.732Z,2.05
2022-08-22T23:05:07.684Z,2.88
2022-08-22T23:07:34.331Z,2.47
2022-08-22T23:10:01.489Z,2.55
2022-08-22T23:12:28.816Z,2.15
2022-08-22T23:14:55.315Z,2.63
2022-08-22T23:17:21.811Z,2.83
2022-08-22T23:19:50.179Z,2.22
2022-08-22T23:22:16.613Z,2.92
2022-08-22T23:24:43.321Z,2.67
2022-08-22T23:27:10.803Z,2.88
2022-08-22T23:29:40.815Z,2.83
2022-08-22T23:32:09.454Z,2.50
2022-08-22T23:34:45.762Z,3.05
2022-08-22T23:37:16.653Z,2.78
2022-08-22T23:39:43.218Z,2.80
2022-08-22T23:42:11.584Z,1.77
2022-08-22T23:44:39.670Z,2.00
2022-08-22T23:47:08.173Z,3.05
2022-08-22T23:49:35.869Z,3.00
2022-08-22T23:52:02.726Z,2.53
2022-08-22T23:54:29.260Z,2.67
2022-08-22T23:56:59.610Z,2.90
2022-08-22T23:59:33.544Z,2.70
